createdAt,value
2023-02-21T08:04:00.021Z,65569
2023-02-21T08:05:11.421Z,26922
2023-02-21T08:06:12.920Z,36513
2023-02-21T08:07:14.877Z,46063
2023-02-21T08:08:16.583Z,54872
2023-02-21T08:09:18.602Z,63386
2023-02-21T08:10:20.478Z,71199
2023-02-21T08:11:22.273Z,78914
2023-02-21T08:12:24.323Z,85697
2023-02-21T08:13:26.109Z,92513
2023-02-21T08:14:28.520Z,96709
2023-02-21T08:15:40.403Z,102824
2023-02-21T08:16:42.197Z,108979
2023-02-21T08:17:43.778Z,113791
2023-02-21T08:18:45.672Z,118879
2023-02-21T08:19:47.878Z,122981
2023-02-21T08:20:49.814Z,127183
2023-02-21T08:22:01.959Z,131167
2023-02-21T08:23:03.630Z,134863
2023-02-21T08:24:05.626Z,138201
2023-02-21T08:25:07.586Z,141470
2023-02-21T08:26:09.925Z,144771
2023-02-21T08:27:27.076Z,147059
2023-02-21T08:28:34.001Z,151173
2023-02-21T08:29:35.756Z,153388
2023-02-21T08:31:13.152Z,155814
2023-02-21T08:32:21.723Z,159676
2023-02-21T08:33:32.966Z,162621
2023-02-21T08:34:35.025Z,164862
2023-02-21T08:35:37.009Z,165842
2023-02-21T08:36:38.948Z,170051
2023-02-21T08:37:40.395Z,170744
2023-02-21T08:38:42.321Z,172503
2023-02-21T08:39:44.089Z,174116
2023-02-21T08:40:45.888Z,175577
2023-02-21T08:41:51.252Z,176688
2023-02-21T08:43:00.435Z,178953
2023-02-21T08:44:02.483Z,179914
2023-02-21T08:45:03.993Z,182661
2023-02-21T08:46:06.558Z,183060
